sensor_id;sensor_type;location;lat;lon;timestamp;pressure;altitude;pressure_sealevel;temperature;humidity
68399;BME280;56258;52.196;13.868;2022-12-18T00:02:12;102884.13;;;20.58;28.57
68399;BME280;56258;52.196;13.868;2022-12-18T00:04:39;102880.66;;;20.47;28.91
68399;BME280;56258;52.196;13.868;2022-12-18T00:07:06;102885.09;;;20.48;28.49
68399;BME280;56258;52.196;13.868;2022-12-18T00:09:32;102885.59;;;20.42;28.57
68399;BME280;56258;52.196;13.868;2022-12-18T00:12:06;102890.16;;;20.41;28.77
68399;BME280;56258;52.196;13.868;2022-12-18T00:14:44;102893.09;;;20.49;28.65
68399;BME280;56258;52.196;13.868;2022-12-18T00:17:11;102891.81;;;20.53;28.27
68399;BME280;56258;52.196;13.868;2022-12-18T00:19:37;102899.91;;;20.53;28.42
68399;BME280;56258;52.196;13.868;2022-12-18T00:22:04;102899.91;;;20.53;28.67
68399;BME280;56258;52.196;13.868;2022-12-18T00:24:32;102900.00;;;20.73;28.05
68399;BME280;56258;52.196;13.868;2022-12-18T00:26:58;102886.97;;;20.87;27.87
68399;BME280;56258;52.196;13.868;2022-12-18T00:29:25;102896.16;;;20.75;28.05
68399;BME280;56258;52.196;13.868;2022-12-18T00:31:52;102886.97;;;20.57;28.12
68399;BME280;56258;52.196;13.868;2022-12-18T00:34:18;102884.56;;;20.33;28.59
68399;BME280;56258;52.196;13.868;2022-12-18T00:36:47;102881.28;;;20.29;28.87
68399;BME280;56258;52.196;13.868;2022-12-18T00:39:14;102877.66;;;20.19;29.02
68399;BME280;56258;52.196;13.868;2022-12-18T00:41:40;102878.47;;;20.10;29.05
68399;BME280;56258;52.196;13.868;2022-12-18T00:44:25;102870.56;;;19.97;29.16
68399;BME280;56258;52.196;13.868;2022-12-18T00:46:52;102868.66;;;19.88;28.92
68399;BME280;56258;52.196;13.868;2022-12-18T00:49:19;102879.56;;;19.87;29.10
68399;BME280;56258;52.196;13.868;2022-12-18T00:51:47;102874.09;;;19.77;29.28
68399;BME280;56258;52.196;13.868;2022-12-18T00:54:14;102883.47;;;19.73;29.03
68399;BME280;56258;52.196;13.868;2022-12-18T00:56:41;102882.75;;;19.71;29.50
68399;BME280;56258;52.196;13.868;2022-12-18T00:59:16;102885.81;;;19.66;28.98
68399;BME280;56258;52.196;13.868;2022-12-18T01:01:43;102888.50;;;19.66;29.32
68399;BME280;56258;52.196;13.868;2022-12-18T01:04:11;102877.97;;;19.63;29.17
68399;BME280;56258;52.196;13.868;2022-12-18T01:06:37;102882.78;;;19.60;29.66
68399;BME280;56258;52.196;13.868;2022-12-18T01:09:05;102876.78;;;19.56;29.48
68399;BME280;56258;52.196;13.868;2022-12-18T01:11:32;102879.38;;;19.58;29.38
68399;BME280;56258;52.196;13.868;2022-12-18T01:14:02;102875.28;;;19.52;29.59
68399;BME280;56258;52.196;13.868;2022-12-18T01:16:28;102869.03;;;19.51;29.41
68399;BME280;56258;52.196;13.868;2022-12-18T01:18:55;102876.16;;;19.52;29.53
68399;BME280;56258;52.196;13.868;2022-12-18T01:21:23;102877.84;;;19.53;29.66
68399;BME280;56258;52.196;13.868;2022-12-18T01:23:55;102878.72;;;19.54;29.29
68399;BME280;56258;52.196;13.868;2022-12-18T01:26:22;102880.56;;;19.53;28.97
68399;BME280;56258;52.196;13.868;2022-12-18T01:28:49;102883.25;;;19.53;29.33
68399;BME280;56258;52.196;13.868;2022-12-18T01:31:27;102877.41;;;19.48;29.31
68399;BME280;56258;52.196;13.868;2022-12-18T01:33:55;102879.25;;;19.48;29.15
68399;BME280;56258;52.196;13.868;2022-12-18T01:36:27;102882.06;;;19.46;29.45
68399;BME280;56258;52.196;13.868;2022-12-18T01:38:55;102889.41;;;19.44;29.58
68399;BME280;56258;52.196;13.868;2022-12-18T01:41:25;102890.53;;;19.42;29.44
68399;BME280;56258;52.196;13.868;2022-12-18T01:43:55;102898.88;;;19.39;29.63
68399;BME280;56258;52.196;13.868;2022-12-18T01:46:27;102899.28;;;19.34;28.94
68399;BME280;56258;52.196;13.868;2022-12-18T01:48:59;102903.56;;;19.37;29.16
68399;BME280;56258;52.196;13.868;2022-12-18T01:51:29;102903.91;;;19.32;29.00
68399;BME280;56258;52.196;13.868;2022-12-18T01:53:57;102909.56;;;19.29;29.38
68399;BME280;56258;52.196;13.868;2022-12-18T01:56:25;102902.72;;;19.25;29.10
68399;BME280;56258;52.196;13.868;2022-12-18T01:59:02;102899.31;;;19.23;29.35
68399;BME280;56258;52.196;13.868;2022-12-18T02:01:31;102904.81;;;19.21;29.46
68399;BME280;56258;52.196;13.868;2022-12-18T02:04:24;102902.88;;;19.23;29.59
68399;BME280;56258;52.196;13.868;2022-12-18T02:06:59;102899.66;;;19.18;29.68
68399;BME280;56258;52.196;13.868;2022-12-18T02:09:35;102909.72;;;19.16;29.25
68399;BME280;56258;52.196;13.868;2022-12-18T02:12:13;102915.84;;;19.18;29.46
68399;BME280;56258;52.196;13.868;2022-12-18T02:15:01;102912.44;;;19.16;29.35
68399;BME280;56258;52.196;13.868;2022-12-18T02:17:53;102916.84;;;19.17;29.53
68399;BME280;56258;52.196;13.868;2022-12-18T02:20:36;102921.25;;;19.18;29.22
68399;BME280;56258;52.196;13.868;2022-12-18T02:26:15;102916.97;;;19.16;29.05
68399;BME280;56258;52.196;13.868;2022-12-18T02:29:10;102930.44;;;19.16;29.17
68399;BME280;56258;52.196;13.868;2022-12-18T02:32:06;102928.59;;;19.16;29.48
68399;BME280;56258;52.196;13.868;2022-12-18T02:34:38;102923.94;;;19.18;29.55
68399;BME280;56258;52.196;13.868;2022-12-18T02:37:09;102916.38;;;19.12;29.27
68399;BME280;56258;52.196;13.868;2022-12-18T02:39:38;102917.81;;;19.16;29.44
68399;BME280;56258;52.196;13.868;2022-12-18T02:42:06;102915.88;;;19.07;29.13
68399;BME280;56258;52.196;13.868;2022-12-18T02:44:45;102929.00;;;19.12;29.23
68399;BME280;56258;52.196;13.868;2022-12-18T02:47:13;102929.00;;;19.12;29.57
68399;BME280;56258;52.196;13.868;2022-12-18T02:53:07;102938.91;;;19.11;29.58
68399;BME280;56258;52.196;13.868;2022-12-18T02:55:59;102935.38;;;19.11;29.51
68399;BME280;56258;52.196;13.868;2022-12-18T03:01:03;102940.13;;;19.07;29.63
68399;BME280;56258;52.196;13.868;2022-12-18T03:03:51;102942.81;;;19.07;29.41
68399;BME280;56258;52.196;13.868;2022-12-18T03:06:41;102949.94;;;19.08;29.34
68399;BME280;56258;52.196;13.868;2022-12-18T03:09:15;102955.44;;;19.07;29.38
68399;BME280;56258;52.196;13.868;2022-12-18T03:11:49;102952.16;;;19.03;29.34
68399;BME280;56258;52.196;13.868;2022-12-18T03:14:38;102961.09;;;19.04;29.28
68399;BME280;56258;52.196;13.868;2022-12-18T03:17:13;102959.00;;;19.07;29.14
68399;BME280;56258;52.196;13.868;2022-12-18T03:19:43;102960.84;;;19.07;29.18
68399;BME280;56258;52.196;13.868;2022-12-18T03:22:11;102959.00;;;19.07;29.43
68399;BME280;56258;52.196;13.868;2022-12-18T03:24:39;102959.00;;;19.07;29.27
68399;BME280;56258;52.196;13.868;2022-12-18T03:27:11;102961.69;;;19.07;29.31
68399;BME280;56258;52.196;13.868;2022-12-18T03:29:56;102958.16;;;19.07;28.81
68399;BME280;56258;52.196;13.868;2022-12-18T03:32:40;102951.16;;;19.04;28.63
68399;BME280;56258;52.196;13.868;2022-12-18T03:35:10;102958.88;;;19.09;29.31
68399;BME280;56258;52.196;13.868;2022-12-18T03:37:39;102950.78;;;19.09;29.14
68399;BME280;56258;52.196;13.868;2022-12-18T03:40:06;102945.91;;;19.03;28.86
68399;BME280;56258;52.196;13.868;2022-12-18T03:42:57;102948.34;;;19.06;29.46
68399;BME280;56258;52.196;13.868;2022-12-18T03:45:42;102948.47;;;19.04;29.11
68399;BME280;56258;52.196;13.868;2022-12-18T03:48:48;102949.19;;;19.06;29.57
68399;BME280;56258;52.196;13.868;2022-12-18T03:53:55;102943.34;;;19.01;29.00
68399;BME280;56258;52.196;13.868;2022-12-18T03:56:27;102954.84;;;19.03;29.30
68399;BME280;56258;52.196;13.868;2022-12-18T03:58:57;102959.25;;;19.04;29.75
68399;BME280;56258;52.196;13.868;2022-12-18T04:01:31;102956.81;;;19.01;29.33
68399;BME280;56258;52.196;13.868;2022-12-18T04:04:00;102968.34;;;19.03;29.59
68399;BME280;56258;52.196;13.868;2022-12-18T04:06:28;102963.91;;;19.02;29.57
68399;BME280;56258;52.196;13.868;2022-12-18T04:08:57;102960.84;;;18.95;28.80
68399;BME280;56258;52.196;13.868;2022-12-18T04:11:24;102962.56;;;18.97;29.68
68399;BME280;56258;52.196;13.868;2022-12-18T04:13:55;102962.44;;;18.98;29.65
68399;BME280;56258;52.196;13.868;2022-12-18T04:16:22;102961.84;;;18.94;28.99
68399;BME280;56258;52.196;13.868;2022-12-18T04:18:49;102966.97;;;18.98;29.07
68399;BME280;56258;52.196;13.868;2022-12-18T04:21:15;102966.13;;;18.97;29.62
68399;BME280;56258;52.196;13.868;2022-12-18T04:23:42;102960.25;;;18.92;29.45
68399;BME280;56258;52.196;13.868;2022-12-18T04:26:09;102960.00;;;18.95;29.36
68399;BME280;56258;52.196;13.868;2022-12-18T04:28:35;102958.41;;;18.92;29.37
68399;BME280;56258;52.196;13.868;2022-12-18T04:31:02;102967.09;;;18.96;29.29
68399;BME280;56258;52.196;13.868;2022-12-18T04:33:29;102973.59;;;18.93;29.15
68399;BME280;56258;52.196;13.868;2022-12-18T04:35:55;102957.56;;;18.92;29.13
68399;BME280;56258;52.196;13.868;2022-12-18T04:38:22;102947.88;;;18.89;29.03
68399;BME280;56258;52.196;13.868;2022-12-18T04:40:48;102957.41;;;18.93;29.77
68399;BME280;56258;52.196;13.868;2022-12-18T04:43:15;102962.81;;;18.93;29.04
68399;BME280;56258;52.196;13.868;2022-12-18T04:45:42;102962.09;;;18.91;29.63
68399;BME280;56258;52.196;13.868;2022-12-18T04:48:09;102961.69;;;18.96;29.51
68399;BME280;56258;52.196;13.868;2022-12-18T04:50:36;102953.00;;;18.92;29.38
68399;BME280;56258;52.196;13.868;2022-12-18T04:53:02;102968.94;;;18.95;29.18
68399;BME280;56258;52.196;13.868;2022-12-18T04:55:29;102970.66;;;18.97;29.05
68399;BME280;56258;52.196;13.868;2022-12-18T04:57:56;102964.41;;;18.96;29.35
68399;BME280;56258;52.196;13.868;2022-12-18T05:00:22;102976.66;;;19.00;29.08
68399;BME280;56258;52.196;13.868;2022-12-18T05:02:49;102984.13;;;18.97;28.99
68399;BME280;56258;52.196;13.868;2022-12-18T05:05:16;102991.22;;;18.98;28.93
68399;BME280;56258;52.196;13.868;2022-12-18T05:07:43;102993.69;;;19.01;28.95
68399;BME280;56258;52.196;13.868;2022-12-18T05:10:09;102998.38;;;18.99;29.25
68399;BME280;56258;52.196;13.868;2022-12-18T05:12:36;103005.56;;;18.98;29.09
68399;BME280;56258;52.196;13.868;2022-12-18T05:15:31;103007.31;;;18.99;28.80
68399;BME280;56258;52.196;13.868;2022-12-18T05:17:58;103004.84;;;18.96;29.36
68399;BME280;56258;52.196;13.868;2022-12-18T05:20:26;102989.91;;;18.92;29.40
68399;BME280;56258;52.196;13.868;2022-12-18T05:22:52;102992.59;;;18.92;29.55
68399;BME280;56258;52.196;13.868;2022-12-18T05:25:20;102998.59;;;18.95;29.50
68399;BME280;56258;52.196;13.868;2022-12-18T05:27:47;103004.22;;;18.92;29.56
68399;BME280;56258;52.196;13.868;2022-12-18T05:30:15;103006.66;;;18.95;29.56
68399;BME280;56258;52.196;13.868;2022-12-18T05:32:42;103005.81;;;18.95;29.23
68399;BME280;56258;52.196;13.868;2022-12-18T05:35:10;103005.81;;;18.95;29.12
68399;BME280;56258;52.196;13.868;2022-12-18T05:37:37;102993.44;;;18.92;29.08
68399;BME280;56258;52.196;13.868;2022-12-18T05:40:09;103010.59;;;18.91;29.47
68399;BME280;56258;52.196;13.868;2022-12-18T05:42:36;103003.63;;;18.89;29.29
68399;BME280;56258;52.196;13.868;2022-12-18T05:45:04;103005.47;;;18.88;29.33
68399;BME280;56258;52.196;13.868;2022-12-18T05:47:31;103015.25;;;18.89;29.21
68399;BME280;56258;52.196;13.868;2022-12-18T05:49:57;103018.09;;;18.88;29.25
68399;BME280;56258;52.196;13.868;2022-12-18T05:52:24;103024.41;;;18.87;29.16
68399;BME280;56258;52.196;13.868;2022-12-18T05:54:51;103016.97;;;18.90;28.83
68399;BME280;56258;52.196;13.868;2022-12-18T05:57:17;103012.56;;;18.89;29.21
68399;BME280;56258;52.196;13.868;2022-12-18T05:59:44;103014.41;;;18.89;29.13
68399;BME280;56258;52.196;13.868;2022-12-18T06:02:11;103016.97;;;18.90;29.13
68399;BME280;56258;52.196;13.868;2022-12-18T06:04:37;103025.19;;;18.89;28.83
68399;BME280;56258;52.196;13.868;2022-12-18T06:07:04;103032.50;;;18.87;29.10
68399;BME280;56258;52.196;13.868;2022-12-18T06:09:30;103039.41;;;18.91;29.55
68399;BME280;56258;52.196;13.868;2022-12-18T06:11:58;103036.09;;;18.87;29.41
68399;BME280;56258;52.196;13.868;2022-12-18T06:14:25;103036.69;;;18.91;28.94
68399;BME280;56258;52.196;13.868;2022-12-18T06:16:51;103042.94;;;18.91;29.11
68399;BME280;56258;52.196;13.868;2022-12-18T06:19:18;103038.53;;;18.90;29.11
68399;BME280;56258;52.196;13.868;2022-12-18T06:21:45;103037.81;;;18.88;29.10
68399;BME280;56258;52.196;13.868;2022-12-18T06:24:12;103037.44;;;18.93;28.96
68399;BME280;56258;52.196;13.868;2022-12-18T06:26:38;103045.28;;;18.96;28.74
68399;BME280;56258;52.196;13.868;2022-12-18T06:29:05;103045.28;;;18.96;29.18
68399;BME280;56258;52.196;13.868;2022-12-18T06:31:32;103049.69;;;18.97;29.37
68399;BME280;56258;52.196;13.868;2022-12-18T06:34:02;103049.69;;;18.97;29.12
68399;BME280;56258;52.196;13.868;2022-12-18T06:36:29;103052.38;;;18.97;28.70
68399;BME280;56258;52.196;13.868;2022-12-18T06:38:56;103057.88;;;18.95;28.49
68399;BME280;56258;52.196;13.868;2022-12-18T06:41:23;103066.09;;;18.94;28.82
68399;BME280;56258;52.196;13.868;2022-12-18T06:43:50;103069.03;;;18.91;28.72
68399;BME280;56258;52.196;13.868;2022-12-18T06:46:23;103078.84;;;18.92;29.00
68399;BME280;56258;52.196;13.868;2022-12-18T06:48:50;103093.91;;;18.94;29.00
68399;BME280;56258;52.196;13.868;2022-12-18T06:51:21;103074.44;;;18.91;29.26
68399;BME280;56258;52.196;13.868;2022-12-18T06:53:48;103080.81;;;18.90;29.01
68399;BME280;56258;52.196;13.868;2022-12-18T06:56:15;103083.09;;;18.83;28.85
68399;BME280;56258;52.196;13.868;2022-12-18T06:58:42;103081.78;;;18.89;29.10
68399;BME280;56258;52.196;13.868;2022-12-18T07:01:10;103084.34;;;18.90;28.84
68399;BME280;56258;52.196;13.868;2022-12-18T07:03:41;103082.00;;;18.86;29.36
68399;BME280;56258;52.196;13.868;2022-12-18T07:06:14;103096.25;;;18.88;29.12
68399;BME280;56258;52.196;13.868;2022-12-18T07:08:41;103092.44;;;18.90;29.65
68399;BME280;56258;52.196;13.868;2022-12-18T07:11:08;103088.78;;;19.03;29.67
68399;BME280;56258;52.196;13.868;2022-12-18T07:13:34;103094.22;;;19.25;29.10
68399;BME280;56258;52.196;13.868;2022-12-18T07:16:20;103095.19;;;19.24;29.50
68399;BME280;56258;52.196;13.868;2022-12-18T07:18:51;103097.75;;;19.26;29.26
68399;BME280;56258;52.196;13.868;2022-12-18T07:21:19;103102.28;;;19.25;29.40
68399;BME280;56258;52.196;13.868;2022-12-18T07:23:46;103105.59;;;19.29;29.67
68399;BME280;56258;52.196;13.868;2022-12-18T07:26:16;103097.63;;;19.27;29.49
68399;BME280;56258;52.196;13.868;2022-12-18T07:28:43;103097.88;;;19.24;30.37
68399;BME280;56258;52.196;13.868;2022-12-18T07:31:16;103095.53;;;19.31;29.43
68399;BME280;56258;52.196;13.868;2022-12-18T07:33:44;103086.00;;;19.27;29.27
68399;BME280;56258;52.196;13.868;2022-12-18T07:36:12;103092.13;;;19.29;29.06
68399;BME280;56258;52.196;13.868;2022-12-18T07:38:39;103089.66;;;19.26;29.75
68399;BME280;56258;52.196;13.868;2022-12-18T07:41:11;103092.25;;;19.27;29.59
68399;BME280;56258;52.196;13.868;2022-12-18T07:43:39;103099.47;;;19.27;29.99
68399;BME280;56258;52.196;13.868;2022-12-18T07:46:08;103091.63;;;19.23;29.34
68399;BME280;56258;52.196;13.868;2022-12-18T07:48:35;103110.63;;;19.22;29.75
68399;BME280;56258;52.196;13.868;2022-12-18T07:51:04;103103.88;;;19.16;29.31
68399;BME280;56258;52.196;13.868;2022-12-18T07:53:32;103105.25;;;19.22;29.59
68399;BME280;56258;52.196;13.868;2022-12-18T07:56:01;103094.69;;;19.19;29.84
68399;BME280;56258;52.196;13.868;2022-12-18T07:58:48;103095.53;;;19.19;29.41
68399;BME280;56258;52.196;13.868;2022-12-18T08:01:15;103094.81;;;19.17;29.42
68399;BME280;56258;52.196;13.868;2022-12-18T08:03:42;103103.63;;;19.19;29.31
68399;BME280;56258;52.196;13.868;2022-12-18T08:06:09;103093.81;;;19.18;29.46
68399;BME280;56258;52.196;13.868;2022-12-18T08:08:37;103092.22;;;19.16;29.71
68399;BME280;56258;52.196;13.868;2022-12-18T08:11:03;103089.78;;;19.13;29.80
68399;BME280;56258;52.196;13.868;2022-12-18T08:13:30;103092.81;;;19.08;29.68
68399;BME280;56258;52.196;13.868;2022-12-18T08:16:05;103098.22;;;19.08;29.70
68399;BME280;56258;52.196;13.868;2022-12-18T08:18:33;103096.50;;;19.07;29.79
68399;BME280;56258;52.196;13.868;2022-12-18T08:21:11;103094.66;;;19.08;29.38
68399;BME280;56258;52.196;13.868;2022-12-18T08:23:38;103094.06;;;19.04;29.25
68399;BME280;56258;52.196;13.868;2022-12-18T08:26:09;103101.16;;;19.05;29.21
68399;BME280;56258;52.196;13.868;2022-12-18T08:28:36;103106.81;;;19.02;30.07
68399;BME280;56258;52.196;13.868;2022-12-18T08:31:03;103101.53;;;19.01;29.23
68399;BME280;56258;52.196;13.868;2022-12-18T08:33:30;103102.59;;;18.98;29.50
68399;BME280;56258;52.196;13.868;2022-12-18T08:36:01;103102.41;;;19.01;29.35
68399;BME280;56258;52.196;13.868;2022-12-18T08:38:28;103095.41;;;18.99;29.08
68399;BME280;56258;52.196;13.868;2022-12-18T08:41:02;103089.78;;;19.02;29.47
68399;BME280;56258;52.196;13.868;2022-12-18T08:43:29;103092.19;;;18.93;29.63
68399;BME280;56258;52.196;13.868;2022-12-18T08:46:18;103097.34;;;18.97;29.47
68399;BME280;56258;52.196;13.868;2022-12-18T08:48:46;103105.22;;;19.00;29.17
68399;BME280;56258;52.196;13.868;2022-12-18T08:51:15;103109.75;;;18.99;29.37
68399;BME280;56258;52.196;13.868;2022-12-18T08:53:42;103107.78;;;19.01;29.08
68399;BME280;56258;52.196;13.868;2022-12-18T08:56:11;103114.88;;;19.02;29.20
68399;BME280;56258;52.196;13.868;2022-12-18T08:58:38;103118.56;;;19.01;29.56
68399;BME280;56258;52.196;13.868;2022-12-18T09:01:06;103116.84;;;19.00;29.14
68399;BME280;56258;52.196;13.868;2022-12-18T09:03:33;103115.75;;;19.03;29.28
68399;BME280;56258;52.196;13.868;2022-12-18T09:06:00;103116.22;;;19.08;29.26
68399;BME280;56258;52.196;13.868;2022-12-18T09:08:27;103117.84;;;19.10;29.12
68399;BME280;56258;52.196;13.868;2022-12-18T09:10:54;103119.31;;;19.03;29.28
68399;BME280;56258;52.196;13.868;2022-12-18T09:13:21;103128.84;;;19.07;29.28
68399;BME280;56258;52.196;13.868;2022-12-18T09:15:51;103126.91;;;19.09;29.61
68399;BME280;56258;52.196;13.868;2022-12-18T09:18:19;103144.06;;;19.08;28.82
68399;BME280;56258;52.196;13.868;2022-12-18T09:20:46;103152.03;;;19.10;29.02
68399;BME280;56258;52.196;13.868;2022-12-18T09:23:13;103156.69;;;19.08;29.37
68399;BME280;56258;52.196;13.868;2022-12-18T09:25:40;103162.06;;;19.08;29.22
68399;BME280;56258;52.196;13.868;2022-12-18T09:30:38;103165.75;;;19.07;29.33
68399;BME280;56258;52.196;13.868;2022-12-18T09:33:05;103167.34;;;19.09;29.15
68399;BME280;56258;52.196;13.868;2022-12-18T09:35:35;103171.13;;;19.07;29.54
68399;BME280;56258;52.196;13.868;2022-12-18T09:38:02;103166.59;;;19.07;29.22
68399;BME280;56258;52.196;13.868;2022-12-18T09:40:34;103169.28;;;19.07;28.72
68399;BME280;56258;52.196;13.868;2022-12-18T09:43:04;103167.81;;;19.03;28.73
68399;BME280;56258;52.196;13.868;2022-12-18T09:45:42;103166.72;;;19.06;28.85
68399;BME280;56258;52.196;13.868;2022-12-18T09:48:20;103165.88;;;19.05;28.71
68399;BME280;56258;52.196;13.868;2022-12-18T09:50:50;103166.13;;;19.02;28.90
68399;BME280;56258;52.196;13.868;2022-12-18T09:53:25;103159.75;;;19.03;28.85
68399;BME280;56258;52.196;13.868;2022-12-18T09:55:53;103152.63;;;19.02;29.14
68399;BME280;56258;52.196;13.868;2022-12-18T09:58:46;103156.06;;;19.04;29.39
68399;BME280;56258;52.196;13.868;2022-12-18T10:01:19;103150.66;;;19.04;29.14
68399;BME280;56258;52.196;13.868;2022-12-18T10:03:47;103144.66;;;19.01;29.36
68399;BME280;56258;52.196;13.868;2022-12-18T10:06:20;103145.41;;;19.03;29.08
68399;BME280;56258;52.196;13.868;2022-12-18T10:09:30;103140.13;;;19.01;28.91
68399;BME280;56258;52.196;13.868;2022-12-18T10:23:14;103109.50;;;19.02;29.16
68399;BME280;56258;52.196;13.868;2022-12-18T10:25:55;103103.38;;;19.00;29.14
68399;BME280;56258;52.196;13.868;2022-12-18T10:28:24;103089.13;;;18.98;29.30
68399;BME280;56258;52.196;13.868;2022-12-18T10:30:52;103086.22;;;19.01;28.56
68399;BME280;56258;52.196;13.868;2022-12-18T10:33:22;103096.03;;;19.02;29.07
68399;BME280;56258;52.196;13.868;2022-12-18T10:35:50;103102.28;;;19.03;29.24
68399;BME280;56258;52.196;13.868;2022-12-18T10:43:29;103099.19;;;19.07;29.13
68399;BME280;56258;52.196;13.868;2022-12-18T10:51:33;103092.81;;;19.08;28.64
68399;BME280;56258;52.196;13.868;2022-12-18T10:56:30;103078.00;;;19.03;28.66
68399;BME280;56258;52.196;13.868;2022-12-18T10:59:03;103082.16;;;19.07;28.88
68399;BME280;56258;52.196;13.868;2022-12-18T11:01:54;103066.25;;;19.04;28.82
68399;BME280;56258;52.196;13.868;2022-12-18T11:04:32;103072.38;;;19.06;28.42
68399;BME280;56258;52.196;13.868;2022-12-18T11:06:59;103067.56;;;19.09;28.44
68399;BME280;56258;52.196;13.868;2022-12-18T11:09:31;103070.19;;;19.11;28.89
68399;BME280;56258;52.196;13.868;2022-12-18T11:12:05;103069.19;;;19.12;29.16
68399;BME280;56258;52.196;13.868;2022-12-18T11:17:20;103077.16;;;19.13;28.39
68399;BME280;56258;52.196;13.868;2022-12-18T11:19:56;103057.16;;;19.05;28.90
68399;BME280;56258;52.196;13.868;2022-12-18T11:22:29;103053.03;;;19.12;28.86
68399;BME280;56258;52.196;13.868;2022-12-18T11:25:05;103051.03;;;19.03;28.70
68399;BME280;56258;52.196;13.868;2022-12-18T11:28:03;103041.97;;;19.04;29.07
68399;BME280;56258;52.196;13.868;2022-12-18T11:30:34;103046.63;;;19.02;29.21
68399;BME280;56258;52.196;13.868;2022-12-18T11:33:15;103050.19;;;19.02;29.01
68399;BME280;56258;52.196;13.868;2022-12-18T11:38:32;103037.44;;;19.04;28.60
68399;BME280;56258;52.196;13.868;2022-12-18T11:41:19;103041.38;;;19.00;29.35
68399;BME280;56258;52.196;13.868;2022-12-18T11:43:54;103050.31;;;19.01;29.55
68399;BME280;56258;52.196;13.868;2022-12-18T11:46:33;103046.63;;;19.02;29.35
68399;BME280;56258;52.196;13.868;2022-12-18T11:49:14;103043.81;;;19.03;28.76
68399;BME280;56258;52.196;13.868;2022-12-18T11:52:10;103045.06;;;18.99;28.79
68399;BME280;56258;52.196;13.868;2022-12-18T11:54:35;103051.50;;;18.97;29.13
68399;BME280;56258;52.196;13.868;2022-12-18T11:57:19;103059.88;;;19.05;28.82
68399;BME280;56258;52.196;13.868;2022-12-18T12:09:44;103046.50;;;19.03;28.85
68399;BME280;56258;52.196;13.868;2022-12-18T12:22:54;103057.78;;;19.08;28.68
68399;BME280;56258;52.196;13.868;2022-12-18T12:25:34;103056.78;;;19.09;29.19
68399;BME280;56258;52.196;13.868;2022-12-18T12:39:38;103063.16;;;19.19;28.49
68399;BME280;56258;52.196;13.868;2022-12-18T12:42:18;103064.88;;;19.20;28.53
68399;BME280;56258;52.196;13.868;2022-12-18T12:45:05;103073.34;;;19.16;28.80
68399;BME280;56258;52.196;13.868;2022-12-18T12:47:38;103070.53;;;19.06;28.90
68399;BME280;56258;52.196;13.868;2022-12-18T12:50:13;103073.22;;;19.06;29.02
68399;BME280;56258;52.196;13.868;2022-12-18T12:52:46;103084.00;;;19.06;28.83
68399;BME280;56258;52.196;13.868;2022-12-18T12:55:32;103087.31;;;18.99;29.23
68399;BME280;56258;52.196;13.868;2022-12-18T12:58:30;103096.63;;;19.06;28.87
68399;BME280;56258;52.196;13.868;2022-12-18T13:01:08;103090.09;;;18.97;29.23
68399;BME280;56258;52.196;13.868;2022-12-18T13:03:54;103100.31;;;19.05;28.92
68399;BME280;56258;52.196;13.868;2022-12-18T13:06:47;103095.91;;;19.04;29.40
68399;BME280;56258;52.196;13.868;2022-12-18T13:09:15;103085.50;;;18.99;29.28
68399;BME280;56258;52.196;13.868;2022-12-18T13:11:44;103090.50;;;19.04;29.03
68399;BME280;56258;52.196;13.868;2022-12-18T13:14:38;103080.69;;;19.03;29.33
68399;BME280;56258;52.196;13.868;2022-12-18T13:20:31;103057.41;;;19.02;29.24
68399;BME280;56258;52.196;13.868;2022-12-18T13:22:47;103056.56;;;19.01;28.75
68399;BME280;56258;52.196;13.868;2022-12-18T13:25:33;103053.63;;;19.04;29.30
68399;BME280;56258;52.196;13.868;2022-12-18T13:28:13;103056.19;;;19.06;29.13
68399;BME280;56258;52.196;13.868;2022-12-18T13:30:41;103061.59;;;19.06;28.94
68399;BME280;56258;52.196;13.868;2022-12-18T13:40:55;103076.16;;;19.03;28.93
68399;BME280;56258;52.196;13.868;2022-12-18T13:43:27;103064.94;;;18.74;29.43
68399;BME280;56258;52.196;13.868;2022-12-18T13:46:05;103071.25;;;18.97;29.71
68399;BME280;56258;52.196;13.868;2022-12-18T13:48:36;103067.34;;;19.12;29.16
68399;BME280;56258;52.196;13.868;2022-12-18T13:51:09;103071.38;;;19.18;29.10
68399;BME280;56258;52.196;13.868;2022-12-18T13:53:48;103075.34;;;18.08;29.53
68399;BME280;56258;52.196;13.868;2022-12-18T13:56:17;103074.91;;;18.50;29.93
68399;BME280;56258;52.196;13.868;2022-12-18T13:58:44;103070.53;;;18.25;29.68
68399;BME280;56258;52.196;13.868;2022-12-18T14:01:22;103067.34;;;17.34;31.24
68399;BME280;56258;52.196;13.868;2022-12-18T14:04:09;103071.19;;;18.16;29.52
68399;BME280;56258;52.196;13.868;2022-12-18T14:06:37;103062.16;;;18.52;28.97
68399;BME280;56258;52.196;13.868;2022-12-18T14:09:04;103035.22;;;18.76;29.07
68399;BME280;56258;52.196;13.868;2022-12-18T14:11:34;103028.59;;;18.80;29.06
68399;BME280;56258;52.196;13.868;2022-12-18T14:14:03;103045.13;;;18.86;28.92
68399;BME280;56258;52.196;13.868;2022-12-18T14:16:31;103047.94;;;18.85;29.05
68399;BME280;56258;52.196;13.868;2022-12-18T14:18:59;103045.25;;;18.85;28.95
68399;BME280;56258;52.196;13.868;2022-12-18T14:21:45;103030.91;;;18.84;29.05
68399;BME280;56258;52.196;13.868;2022-12-18T14:24:21;103035.44;;;18.84;29.27
68399;BME280;56258;52.196;13.868;2022-12-18T14:26:49;103038.16;;;18.84;29.12
68399;BME280;56258;52.196;13.868;2022-12-18T14:29:27;103042.94;;;18.80;29.32
68399;BME280;56258;52.196;13.868;2022-12-18T14:34:53;103037.41;;;18.82;28.52